Time;durP1;ratioP1;P1;durP2;ratioP2;P2;SDS_P1;SDS_P2;PMS_P1;PMS_P2;Temp;Humidity;BMP_temperature;BMP_pressure;BME280_temperature;BME280_humidity;BME280_pressure;Samples;Min_cycle;Max_cycle;Signal;HPM_P1;HPM_P2
2021/04/14 00:02:06;;;;;;;30.70;27.40;;;;;;;10.21;71.53;100350.56;1743425;80;21076;-90
2021/04/14 00:04:38;;;;;;;34.17;28.50;;;;;;;10.17;71.49;100343.96;1753861;80;21183;-88
2021/04/14 00:07:09;;;;;;;36.17;30.50;;;;;;;10.11;71.58;100358.00;1733209;81;21171;-77
2021/04/14 00:09:37;;;;;;;34.93;28.17;;;;;;;10.14;71.50;100343.81;1759772;80;21844;-78
2021/04/14 00:12:06;;;;;;;32.87;29.07;;;;;;;10.27;71.21;100349.81;1729038;81;21503;-78
2021/04/14 00:14:35;;;;;;;37.20;32.00;;;;;;;10.31;70.94;100343.13;1724472;82;21124;-77
2021/04/14 00:17:05;;;;;;;35.20;28.53;;;;;;;10.28;70.87;100349.30;1727881;81;21262;-77
2021/04/14 00:19:34;;;;;;;29.07;25.93;;;;;;;10.24;70.59;100345.36;1720763;81;21246;-78
2021/04/14 00:22:03;;;;;;;28.57;25.30;;;;;;;10.23;70.56;100348.54;1721296;81;21720;-77
2021/04/14 00:24:32;;;;;;;31.73;25.60;;;;;;;10.31;70.21;100348.97;1730563;81;21273;-77
2021/04/14 00:26:59;;;;;;;32.73;25.50;;;;;;;10.33;70.05;100345.61;1726930;81;21139;-76
2021/04/14 00:29:28;;;;;;;26.87;23.33;;;;;;;10.27;69.89;100342.34;1733345;81;21131;-77
2021/04/14 00:31:55;;;;;;;35.03;23.53;;;;;;;10.19;69.83;100343.27;1727532;81;21159;-77
2021/04/14 00:34:25;;;;;;;30.60;23.10;;;;;;;10.23;69.96;100344.55;1724896;81;21067;-75
2021/04/14 00:36:53;;;;;;;32.17;25.53;;;;;;;10.36;69.55;100340.41;1729161;81;21175;-77
2021/04/14 00:39:25;;;;;;;32.00;26.30;;;;;;;10.39;69.40;100338.71;1728809;82;21175;-77
2021/04/14 00:41:54;;;;;;;24.57;21.60;;;;;;;10.34;68.94;100337.95;1730978;81;21163;-77
2021/04/14 00:44:23;;;;;;;22.17;19.97;;;;;;;10.29;68.79;100334.47;1726870;81;21645;-77
2021/04/14 00:46:50;;;;;;;21.63;16.73;;;;;;;10.23;69.02;100333.89;1731230;82;21187;-77
2021/04/14 00:49:18;;;;;;;17.80;15.83;;;;;;;10.32;68.74;100332.80;1730805;82;21294;-77
2021/04/14 00:51:47;;;;;;;18.33;15.07;;;;;;;10.35;68.70;100329.45;1719007;82;21761;-77
2021/04/14 00:54:15;;;;;;;20.77;15.00;;;;;;;10.29;69.12;100323.81;1727816;82;21478;-77
2021/04/14 00:56:44;;;;;;;20.27;15.43;;;;;;;10.17;69.39;100326.66;1719788;82;21297;-77
2021/04/14 00:59:11;;;;;;;16.87;15.13;;;;;;;10.17;69.71;100331.98;1714450;82;21181;-77
2021/04/14 01:01:40;;;;;;;16.80;15.00;;;;;;;10.20;69.54;100330.25;1710567;82;21268;-77
2021/04/14 01:04:07;;;;;;;14.90;13.53;;;;;;;10.14;69.64;100325.68;1710116;83;21173;-77
2021/04/14 01:06:35;;;;;;;18.97;14.00;;;;;;;10.09;69.59;100332.06;1682113;83;21167;-78
2021/04/14 01:09:03;;;;;;;16.87;14.23;;;;;;;10.07;69.67;100327.42;1710105;83;21621;-78
2021/04/14 01:11:31;;;;;;;14.83;13.27;;;;;;;10.14;69.53;100329.16;1718347;82;21096;-78
2021/04/14 01:13:58;;;;;;;16.23;13.17;;;;;;;10.24;69.27;100322.72;1727094;81;21176;-78
2021/04/14 01:16:28;;;;;;;14.90;13.10;;;;;;;10.24;69.14;100318.72;1726455;81;21141;-77
2021/04/14 01:18:58;;;;;;;16.10;14.47;;;;;;;10.18;69.16;100312.30;1724737;81;21164;-78
2021/04/14 01:21:39;;;;;;;17.57;13.13;;;;;;;10.12;69.14;100319.20;1728529;81;21586;-77
2021/04/14 01:24:13;;;;;;;15.13;13.53;;;;;;;10.06;69.37;100310.63;1748715;81;21017;-77
2021/04/14 01:26:41;;;;;;;13.97;12.57;;;;;;;10.12;69.13;100311.72;1711049;82;21223;-77
2021/04/14 01:29:11;;;;;;;13.37;12.00;;;;;;;10.12;68.73;100316.53;1712258;82;21198;-77
2021/04/14 01:31:41;;;;;;;15.10;13.50;;;;;;;10.06;68.96;100315.14;1727027;81;21150;-78
2021/04/14 01:34:14;;;;;;;14.73;13.17;;;;;;;10.02;69.09;100313.83;1694308;82;21210;-78
2021/04/14 01:36:42;;;;;;;14.80;12.40;;;;;;;10.05;68.96;100308.14;1694691;84;21325;-78
2021/04/14 01:39:13;;;;;;;13.53;11.93;;;;;;;10.09;68.40;100308.91;1677992;84;21174;-77
2021/04/14 01:41:42;;;;;;;16.03;12.43;;;;;;;10.05;68.55;100313.47;1677753;84;21791;-77
2021/04/14 01:44:10;;;;;;;16.60;13.20;;;;;;;9.96;68.84;100303.92;1677466;83;21150;-78
2021/04/14 01:46:43;;;;;;;13.37;11.87;;;;;;;9.95;68.79;100309.77;1677985;84;21289;-78
2021/04/14 01:49:12;;;;;;;14.30;12.03;;;;;;;10.05;68.52;100308.96;1646925;85;21605;-78
2021/04/14 01:51:40;;;;;;;12.80;11.53;;;;;;;10.08;68.31;100309.12;1679425;84;21183;-77
2021/04/14 01:54:11;;;;;;;13.83;12.43;;;;;;;10.04;68.26;100314.47;1679484;84;21330;-77
2021/04/14 01:56:41;;;;;;;14.47;12.50;;;;;;;9.99;68.28;100310.23;1677825;81;21085;-78
2021/04/14 01:59:12;;;;;;;13.70;11.73;;;;;;;9.92;68.45;100318.11;1679892;85;21337;-76
2021/04/14 02:01:41;;;;;;;16.30;11.53;;;;;;;9.93;68.45;100308.61;1682573;83;21242;-76
2021/04/14 02:04:10;;;;;;;14.60;13.17;;;;;;;10.03;68.24;100306.17;1687064;84;21327;-77
2021/04/14 02:06:37;;;;;;;14.57;12.30;;;;;;;10.02;68.25;100305.36;1686888;84;21768;-76
2021/04/14 02:09:06;;;;;;;14.83;13.00;;;;;;;9.96;68.44;100308.73;1686982;84;21631;-76
2021/04/14 02:11:33;;;;;;;13.37;12.00;;;;;;;9.92;68.62;100301.63;1688267;82;21024;-76
2021/04/14 02:14:01;;;;;;;15.40;12.57;;;;;;;9.91;68.77;100293.84;1695228;84;21146;-76
2021/04/14 02:16:28;;;;;;;16.00;13.00;;;;;;;9.98;68.51;100293.91;1695114;84;21170;-76
2021/04/14 02:18:56;;;;;;;13.43;12.00;;;;;;;10.06;68.27;100294.65;1695860;84;21242;-78
2021/04/14 02:21:23;;;;;;;16.47;11.93;;;;;;;10.05;68.10;100289.50;1696075;84;21299;-76
2021/04/14 02:23:52;;;;;;;15.03;13.47;;;;;;;10.03;68.22;100293.67;1693323;83;21017;-77
2021/04/14 02:26:22;;;;;;;14.10;11.87;;;;;;;10.01;68.25;100295.70;1693856;85;21291;-77
2021/04/14 02:28:50;;;;;;;14.03;11.87;;;;;;;9.99;68.30;100295.58;1683135;85;21162;-77
2021/04/14 02:31:30;;;;;;;14.80;11.80;;;;;;;10.06;68.09;100299.16;1687707;85;21650;-78
2021/04/14 02:34:05;;;;;;;13.87;12.03;;;;;;;10.05;67.79;100295.65;1679677;83;21043;-79
2021/04/14 02:36:33;;;;;;;15.83;13.93;;;;;;;9.96;67.98;100303.41;1693741;84;21189;-78
2021/04/14 02:39:01;;;;;;;13.60;12.30;;;;;;;9.94;68.02;100301.45;1681155;84;21298;-78
2021/04/14 02:41:28;;;;;;;18.53;12.13;;;;;;;9.94;68.01;100303.62;1697793;84;21210;-77
2021/04/14 02:43:56;;;;;;;12.63;11.33;;;;;;;9.97;67.74;100305.59;1681568;84;21171;-77
2021/04/14 02:46:24;;;;;;;19.00;13.77;;;;;;;9.95;67.38;100307.10;1657666;83;21669;-77
2021/04/14 02:48:53;;;;;;;15.47;13.97;;;;;;;9.91;67.34;100299.98;1655838;86;21244;-78
2021/04/14 02:51:21;;;;;;;14.60;11.83;;;;;;;9.81;67.72;100308.74;1658979;86;21210;-78
2021/04/14 02:53:48;;;;;;;16.03;13.20;;;;;;;9.70;67.52;100304.73;1655118;85;21227;-78
2021/04/14 02:56:16;;;;;;;14.00;11.57;;;;;;;9.64;67.49;100304.11;1676351;83;21547;-78
2021/04/14 02:58:46;;;;;;;14.90;12.03;;;;;;;9.67;67.23;100297.61;1697078;83;21175;-77
2021/04/14 03:01:16;;;;;;;16.57;13.73;;;;;;;9.70;66.78;100299.41;1719566;82;21122;-76
2021/04/14 03:03:43;;;;;;;16.23;13.87;;;;;;;9.61;66.67;100295.69;1721331;82;21170;-76
2021/04/14 03:06:11;;;;;;;16.67;15.07;;;;;;;9.46;66.97;100300.48;1722133;82;21324;-76
2021/04/14 03:09:05;;;;;;;16.03;14.47;;;;;;;9.39;67.17;100300.88;1721201;82;21143;-87
2021/04/14 03:11:35;;;;;;;17.50;14.90;;;;;;;9.33;67.28;100305.61;1719397;80;21072;-88
2021/04/14 03:14:03;;;;;;;15.97;14.47;;;;;;;9.37;66.86;100296.25;1721721;82;21312;-87
2021/04/14 03:16:32;;;;;;;18.30;15.67;;;;;;;9.39;66.79;100300.06;1719524;82;21202;-88
2021/04/14 03:19:00;;;;;;;18.70;15.57;;;;;;;9.33;66.70;100302.95;1720671;82;21154;-88
2021/04/14 03:21:30;;;;;;;19.03;14.83;;;;;;;9.28;66.64;100302.14;1721559;82;21183;-89
2021/04/14 03:23:59;;;;;;;17.60;15.30;;;;;;;9.25;66.44;100302.52;1721699;80;21099;-89
2021/04/14 03:26:26;;;;;;;15.40;13.87;;;;;;;9.20;66.22;100303.55;1717236;82;21160;-88
2021/04/14 03:28:53;;;;;;;18.47;13.30;;;;;;;9.29;65.80;100307.80;1721960;82;21218;-87
2021/04/14 03:31:21;;;;;;;20.00;13.90;;;;;;;9.33;65.44;100305.61;1718708;82;21760;-88
2021/04/14 03:33:48;;;;;;;16.83;15.07;;;;;;;9.26;65.46;100308.66;1724304;82;21687;-88
2021/04/14 03:36:15;;;;;;;17.33;14.93;;;;;;;9.20;65.54;100307.55;1727731;83;21485;-87
2021/04/14 03:38:43;;;;;;;16.83;15.10;;;;;;;9.15;65.55;100302.78;1706448;83;21708;-88
2021/04/14 03:41:10;;;;;;;23.17;14.80;;;;;;;9.13;65.46;100311.92;1704429;83;21717;-88
2021/04/14 03:43:39;;;;;;;17.30;14.07;;;;;;;9.17;65.53;100322.52;1705478;83;21183;-86
2021/04/14 03:46:08;;;;;;;13.70;12.30;;;;;;;9.26;65.31;100313.47;1674993;82;21099;-88
2021/04/14 03:48:36;;;;;;;14.70;12.70;;;;;;;9.25;65.17;100317.15;1658069;85;21223;-88
2021/04/14 03:51:04;;;;;;;14.70;13.13;;;;;;;9.21;65.02;100315.86;1661151;84;21230;-88
2021/04/14 03:53:37;;;;;;;14.87;13.37;;;;;;;9.22;65.22;100318.01;1663776;84;21335;-89
2021/04/14 03:56:09;;;;;;;16.50;12.77;;;;;;;9.23;65.21;100320.98;1670983;83;21298;-88
2021/04/14 03:58:40;;;;;;;17.93;12.80;;;;;;;9.23;65.19;100316.98;1683268;84;21133;-87
2021/04/14 04:01:11;;;;;;;13.80;12.30;;;;;;;9.28;65.21;100317.28;1690981;84;21205;-89
2021/04/14 04:03:39;;;;;;;18.43;14.40;;;;;;;9.40;64.83;100321.66;1677811;84;21165;-88
2021/04/14 04:06:07;;;;;;;14.37;12.67;;;;;;;9.43;64.89;100314.14;1658627;85;21195;-88
2021/04/14 04:08:35;;;;;;;15.70;13.20;;;;;;;8.75;64.47;100208.25;1665657;84;21366;-87
2021/04/14 04:11:04;;;;;;;20.07;16.00;;;;;;;9.37;64.03;100312.21;1673367;83;21203;-87
2021/04/14 04:13:33;;;;;;;21.30;15.17;;;;;;;9.32;64.43;100319.90;1674164;85;21824;-88
2021/04/14 04:16:01;;;;;;;19.30;15.20;;;;;;;9.27;64.49;100311.14;1678563;84;21211;-88
2021/04/14 04:18:30;;;;;;;15.77;14.07;;;;;;;9.23;64.45;100310.34;1674661;84;21182;-87
2021/04/14 04:21:01;;;;;;;17.97;14.77;;;;;;;9.24;64.57;100302.70;1676425;84;21188;-88
2021/04/14 04:23:29;;;;;;;16.80;13.33;;;;;;;9.33;64.08;100303.77;1684216;84;21115;-88
2021/04/14 04:25:57;;;;;;;14.20;12.77;;;;;;;9.34;63.89;100309.42;1674396;84;21199;-88
2021/04/14 04:28:25;;;;;;;16.40;14.10;;;;;;;9.29;63.84;100310.97;1670059;84;21601;-88
2021/04/14 04:30:54;;;;;;;16.80;13.63;;;;;;;9.29;64.02;100306.98;1675509;84;21198;-88
2021/04/14 04:33:22;;;;;;;15.37;13.73;;;;;;;9.32;63.78;100313.25;1655245;84;21328;-89
2021/04/14 04:36:02;;;;;;;14.80;13.20;;;;;;;9.34;63.67;100320.06;1673031;85;21210;-88
2021/04/14 04:38:55;;;;;;;15.43;12.90;;;;;;;9.34;63.61;100322.72;1676670;84;21232;-89
2021/04/14 04:41:25;;;;;;;15.87;14.23;;;;;;;9.33;63.57;100322.89;1670426;84;21235;-89
2021/04/14 04:44:14;;;;;;;18.30;13.18;;;;;;;9.51;63.44;100323.39;1767863;79;23174;-93
2021/04/14 04:46:41;;;;;;;15.27;13.63;;;;;;;9.54;62.20;100320.86;1724823;82;21215;-87
2021/04/14 04:49:12;;;;;;;15.47;11.73;;;;;;;9.44;61.43;100326.96;1726462;80;21195;-89
2021/04/14 04:51:40;;;;;;;15.23;12.87;;;;;;;9.37;61.25;100330.02;1727733;82;21246;-91
2021/04/14 04:54:10;;;;;;;14.63;11.60;;;;;;;9.32;61.50;100326.06;1717261;82;21349;-89
2021/04/14 04:56:38;;;;;;;14.40;12.63;;;;;;;9.31;61.40;100326.24;1710485;82;21146;-90
2021/04/14 04:59:06;;;;;;;15.67;12.67;;;;;;;9.26;61.37;100321.45;1700470;83;21186;-92
2021/04/14 05:01:35;;;;;;;14.17;12.53;;;;;;;9.24;61.30;100323.97;1665051;84;21230;-90
2021/04/14 05:04:04;;;;;;;16.60;14.53;;;;;;;9.21;61.12;100325.17;1700130;83;21185;-88
2021/04/14 05:06:37;;;;;;;19.23;14.93;;;;;;;9.18;61.38;100326.03;1697261;83;21168;-91
2021/04/14 05:09:07;;;;;;;17.17;12.70;;;;;;;9.14;61.48;100327.70;1661316;84;21178;-92
2021/04/14 05:11:38;;;;;;;16.33;13.03;;;;;;;9.14;61.76;100335.69;1650726;83;21088;-88
2021/04/14 05:14:08;;;;;;;15.90;13.33;;;;;;;9.27;61.45;100332.42;1696450;83;22097;-89
2021/04/14 05:16:40;;;;;;;18.53;12.43;;;;;;;9.37;61.08;100330.83;1695140;83;21197;-92
2021/04/14 05:19:11;;;;;;;16.93;13.40;;;;;;;9.36;60.96;100331.83;1699451;83;21574;-85
2021/04/14 05:21:40;;;;;;;17.07;13.00;;;;;;;9.34;60.46;100329.38;1688312;84;21185;-88
2021/04/14 05:24:10;;;;;;;16.13;14.50;;;;;;;9.33;60.46;100330.36;1694070;82;21499;-88
2021/04/14 05:26:37;;;;;;;19.47;14.93;;;;;;;9.35;60.39;100334.18;1689791;83;21174;-88
2021/04/14 05:29:06;;;;;;;23.33;15.23;;;;;;;9.32;60.13;100330.06;1698551;83;21169;-87
2021/04/14 05:31:40;;;;;;;19.43;14.70;;;;;;;9.24;59.83;100329.30;1707070;81;21801;-87
2021/04/14 05:34:09;;;;;;;17.07;15.40;;;;;;;9.23;59.91;100325.81;1707316;82;21042;-87
2021/04/14 05:36:39;;;;;;;14.07;12.43;;;;;;;9.22;59.75;100322.81;1698225;83;21177;-87
2021/04/14 05:39:06;;;;;;;18.10;13.10;;;;;;;9.27;59.82;100327.61;1697637;83;21242;-87
2021/04/14 05:41:34;;;;;;;19.30;14.40;;;;;;;9.29;59.52;100330.41;1698298;84;21189;-84
2021/04/14 05:44:03;;;;;;;17.47;14.73;;;;;;;9.26;59.50;100331.27;1699957;83;21200;-88
2021/04/14 05:46:32;;;;;;;17.80;14.77;;;;;;;9.31;59.44;100332.89;1700444;83;21189;-86
2021/04/14 05:49:00;;;;;;;18.60;16.13;;;;;;;8.66;58.62;100245.19;1699344;83;21193;-86
2021/04/14 05:51:33;;;;;;;19.77;16.87;;;;;;;9.27;59.23;100323.11;1700634;83;21324;-87
2021/04/14 05:54:29;;;;;;;21.97;18.07;;;;;;;9.33;59.36;100326.89;1795985;78;22370;-87
2021/04/14 05:57:03;;;;;;;23.27;17.47;;;;;;;9.31;59.26;100334.22;1729865;77;21645;-87
2021/04/14 05:59:31;;;;;;;24.00;15.80;;;;;;;9.35;59.46;100330.19;1711567;81;21176;-87
2021/04/14 06:01:58;;;;;;;19.40;16.03;;;;;;;9.39;58.73;100333.32;1729556;81;21596;-87
2021/04/14 06:04:27;;;;;;;18.47;15.93;;;;;;;9.40;58.77;100334.95;1745398;80;21166;-89
2021/04/14 06:06:54;;;;;;;20.03;15.73;;;;;;;9.42;58.75;100335.12;1744031;80;21138;-85
2021/04/14 06:09:21;;;;;;;17.50;15.03;;;;;;;9.44;57.95;100335.76;1735048;80;21143;-86
2021/04/14 06:11:50;;;;;;;15.20;13.70;;;;;;;9.50;58.31;100337.69;1733659;81;21370;-86
2021/04/14 06:14:17;;;;;;;18.43;14.63;;;;;;;9.58;58.07;100333.30;1724030;83;21226;-87
2021/04/14 06:16:46;;;;;;;19.57;14.80;;;;;;;9.61;57.65;100332.44;1720626;82;21192;-85
2021/04/14 06:19:16;;;;;;;16.67;13.53;;;;;;;9.62;57.28;100329.26;1719205;82;21199;-85
2021/04/14 06:21:45;;;;;;;17.00;14.83;;;;;;;9.66;57.69;100328.73;1703281;83;21625;-85
2021/04/14 06:24:16;;;;;;;16.57;14.87;;;;;;;9.72;57.47;100325.84;1722903;79;21135;-86
2021/04/14 06:29:13;;;;;;;17.87;14.50;;;;;;;9.79;56.38;100316.61;1707770;83;21192;-85
2021/04/14 06:31:43;;;;;;;13.30;11.90;;;;;;;9.79;56.46;100325.41;1707245;83;21166;-87
2021/04/14 06:34:22;;;;;;;16.40;13.93;;;;;;;9.84;56.57;100323.55;1699498;81;21476;-87
2021/04/14 06:40:46;;;;;;;17.93;13.73;;;;;;;10.00;55.85;100318.52;1798007;78;23152;-88
2021/04/14 06:42:55;;;;;;;15.73;13.17;;;;;;;10.01;55.71;100325.52;1713975;81;21218;-90
2021/04/14 06:45:25;;;;;;;24.90;15.80;;;;;;;10.04;55.09;100319.80;1699826;82;21179;-89
2021/04/14 06:47:58;;;;;;;16.97;15.17;;;;;;;10.07;54.91;100323.43;1692804;82;21206;-89
2021/04/14 06:50:50;;;;;;;18.40;15.23;;;;;;;10.04;54.52;100320.64;1629152;85;21725;-89
2021/04/14 06:53:34;;;;;;;18.73;16.73;;;;;;;10.07;54.77;100321.58;1652781;85;21698;-90
2021/04/14 06:56:07;;;;;;;22.40;15.43;;;;;;;10.13;54.60;100324.86;1651191;84;21153;-88
2021/04/14 06:58:45;;;;;;;18.10;16.20;;;;;;;10.23;54.49;100319.23;1616017;86;21230;-89
2021/04/14 07:01:16;;;;;;;;;;;;;;;10.35;54.51;100316.94;1607840;86;21502;-90
2021/04/14 07:04:04;;;;;;;14.17;12.70;;;;;;;10.53;54.23;100316.54;1639619;85;20179;-90
2021/04/14 07:06:34;;;;;;;19.13;13.60;;;;;;;10.66;53.94;100318.50;1633218;85;21250;-91
2021/04/14 07:09:13;;;;;;;18.27;14.33;;;;;;;10.83;52.45;100311.92;1598562;87;21238;-92
2021/04/14 07:11:41;;;;;;;14.73;13.20;;;;;;;10.97;52.17;100322.20;1608139;86;21638;-89
2021/04/14 07:14:11;;;;;;;15.13;12.73;;;;;;;11.08;51.98;100324.87;1616833;86;21220;-86
2021/04/14 07:17:00;;;;;;;18.67;14.40;;;;;;;11.15;52.14;100327.58;1599572;87;21407;-88
2021/04/14 07:20:13;;;;;;;;;;;;;;;;;;;;;
2021/04/14 07:22:57;;;;;;;15.87;12.47;;;;;;;11.41;50.97;100319.77;1789375;79;22991;-90
2021/04/14 07:25:47;;;;;;;16.30;13.20;;;;;;;11.43;51.22;100320.44;1758537;78;21085;-90
2021/04/14 07:29:34;;;;;;;17.43;12.47;;;;;;;11.56;50.14;100310.85;1805022;77;22635;-91
2021/04/14 07:48:44;;;;;;;;;;;;;;;;;;;;;
2021/04/14 07:58:23;;;;;;;20.67;15.63;;;;;;;11.88;49.40;100328.94;1638060;86;21280;-95
2021/04/14 08:01:52;;;;;;;24.83;15.93;;;;;;;12.09;48.77;100320.52;1797308;77;22720;-91
2021/04/14 08:04:35;;;;;;;22.60;15.65;;;;;;;12.05;48.25;100333.47;1758991;80;21196;-89
2021/04/14 08:07:24;;;;;;;21.90;15.60;;;;;;;11.96;48.00;100327.13;1749152;80;21166;-89
2021/04/14 08:10:02;;;;;;;22.17;18.23;;;;;;;11.98;48.15;100327.76;1733803;81;21198;-87
2021/04/14 08:12:35;;;;;;;22.63;15.90;;;;;;;12.03;48.33;100332.00;1688413;80;21105;-91
2021/04/14 08:15:14;;;;;;;25.17;17.40;;;;;;;12.09;48.05;100327.20;1661404;85;21241;-92
2021/04/14 08:17:47;;;;;;;18.67;14.47;;;;;;;12.14;48.12;100325.28;1661967;84;21315;-91
2021/04/14 08:20:29;;;;;;;18.17;14.87;;;;;;;12.17;48.05;100335.06;1666683;83;21163;-91
2021/04/14 08:23:21;;;;;;;26.23;17.87;;;;;;;12.23;47.92;100332.92;1690319;81;21160;-93
2021/04/14 08:26:35;;;;;;;21.33;15.93;;;;;;;12.34;47.24;100332.88;1795177;77;23163;-90
2021/04/14 08:29:09;;;;;;;24.72;15.25;;;;;;;12.33;47.18;100325.05;1768795;79;21237;-88
2021/04/14 08:31:50;;;;;;;22.13;15.78;;;;;;;12.35;47.23;100313.12;1770742;79;21585;-88
2021/04/14 08:34:30;;;;;;;19.27;13.60;;;;;;;12.42;47.13;100312.63;1751459;79;21065;-88
2021/04/14 08:37:03;;;;;;;21.68;15.03;;;;;;;12.54;47.13;100313.39;1723955;82;21179;-87
2021/04/14 08:39:59;;;;;;;20.37;14.18;;;;;;;12.63;44.26;100308.98;1716410;82;21383;-86
2021/04/14 08:42:33;;;;;;;29.75;15.93;;;;;;;12.62;44.59;100304.67;1726917;82;21156;-87
2021/04/14 08:45:12;;;;;;;22.90;15.72;;;;;;;12.71;44.42;100305.30;1726198;80;21041;-85
2021/04/14 08:48:04;;;;;;;24.87;15.88;;;;;;;12.84;44.34;100293.27;1724982;81;21123;-86
2021/04/14 08:50:56;;;;;;;34.27;16.00;;;;;;;13.04;43.24;100301.33;1683797;83;21209;-87
2021/04/14 08:53:28;;;;;;;25.70;16.42;;;;;;;13.15;43.35;100291.05;1682192;83;21846;-87
2021/04/14 08:55:56;;;;;;;29.63;16.27;;;;;;;13.25;43.43;100294.12;1684861;82;21138;-86
2021/04/14 08:58:24;;;;;;;36.58;18.12;;;;;;;13.37;43.01;100276.44;1684451;84;21272;-86
2021/04/14 09:00:51;;;;;;;33.55;18.12;;;;;;;13.49;43.06;100283.84;1684449;84;21122;-85
2021/04/14 09:03:22;;;;;;;30.48;14.68;;;;;;;13.60;43.16;100271.15;1678289;84;22223;-88
2021/04/14 09:06:19;;;;;;;29.82;16.48;;;;;;;13.73;42.55;100260.40;1776463;78;28627;-86
2021/04/14 09:08:50;;;;;;;38.92;16.17;;;;;;;13.95;42.40;100262.78;1752729;79;21148;-89
2021/04/14 09:11:28;;;;;;;28.85;15.15;;;;;;;14.11;41.02;100269.50;1792777;79;21140;-89
2021/04/14 09:14:03;;;;;;;28.90;14.45;;;;;;;14.00;41.95;100255.75;1752615;80;21194;-86
2021/04/14 09:16:51;;;;;;;24.95;12.53;;;;;;;13.96;42.15;100262.58;1752332;80;21175;-86
2021/04/14 09:19:39;;;;;;;15.75;10.63;;;;;;;13.94;41.68;100257.95;1747755;80;21512;-88
2021/04/14 09:22:21;;;;;;;23.85;12.88;;;;;;;13.83;41.67;100249.23;1757100;80;21254;-84
2021/04/14 09:25:09;;;;;;;20.27;11.63;;;;;;;13.75;42.22;100253.46;1698681;83;21264;-86
2021/04/14 09:27:44;;;;;;;21.55;12.63;;;;;;;13.72;42.79;100246.69;1676800;83;21629;-85
2021/04/14 09:30:34;;;;;;;19.23;12.78;;;;;;;13.74;43.08;100244.61;1684558;83;21595;-87
2021/04/14 09:33:10;;;;;;;17.10;13.85;;;;;;;13.71;43.41;100250.41;1692525;83;21238;-87
2021/04/14 09:35:51;;;;;;;17.52;11.83;;;;;;;13.71;43.76;100236.17;1683541;83;21185;-87
2021/04/14 09:38:51;;;;;;;17.15;12.20;;;;;;;13.79;43.69;100232.76;1776325;78;22971;-88
2021/04/14 09:41:30;;;;;;;18.42;12.65;;;;;;;13.82;44.07;100231.50;1756896;80;21193;-84
2021/04/14 09:44:12;;;;;;;19.35;13.10;;;;;;;13.88;43.66;100225.31;1752883;80;21329;-85
2021/04/14 09:47:12;;;;;;;21.07;13.45;;;;;;;13.94;43.48;100223.11;1746861;80;21156;-85
2021/04/14 09:49:44;;;;;;;24.30;13.03;;;;;;;14.01;43.54;100215.03;1758417;80;21151;-85
2021/04/14 09:52:26;;;;;;;18.48;12.78;;;;;;;14.18;43.41;100214.01;1732287;81;21188;-85
2021/04/14 09:55:00;;;;;;;16.62;11.22;;;;;;;14.33;43.19;100206.48;1759649;80;21374;-87
2021/04/14 09:57:32;;;;;;;14.65;11.88;;;;;;;14.45;42.56;100210.66;1753730;80;21172;-87
2021/04/14 10:00:00;;;;;;;18.40;10.95;;;;;;;14.45;42.63;100209.31;1747754;81;21350;-87
2021/04/14 10:02:29;;;;;;;14.85;10.82;;;;;;;14.44;42.75;100204.98;1749056;80;21166;-86
2021/04/14 10:05:00;;;;;;;12.47;9.30;;;;;;;14.48;42.46;100207.52;1733430;80;21194;-90
2021/04/14 10:07:35;;;;;;;14.47;10.40;;;;;;;14.48;41.79;100210.73;1758640;80;21170;-85
2021/04/14 10:10:10;;;;;;;14.35;10.43;;;;;;;14.46;42.24;100201.56;1744968;80;21231;-86
2021/04/14 10:12:38;;;;;;;16.82;11.48;;;;;;;14.50;42.47;100195.24;1685811;82;21639;-85
2021/04/14 10:15:08;;;;;;;13.10;8.35;;;;;;;14.59;42.65;100192.10;1680172;84;21266;-86
2021/04/14 10:17:36;;;;;;;11.03;9.90;;;;;;;14.70;42.07;100183.88;1653026;84;21210;-85
2021/04/14 10:20:18;;;;;;;12.88;8.95;;;;;;;14.82;42.26;100182.63;1663063;84;21146;-84
2021/04/14 10:22:50;;;;;;;12.68;9.68;;;;;;;14.91;42.19;100179.97;1659300;84;21124;-84
2021/04/14 10:25:25;;;;;;;13.30;9.55;;;;;;;15.01;41.20;100179.46;1658348;84;21187;-84
2021/04/14 10:28:06;;;;;;;11.68;8.40;;;;;;;15.07;41.23;100173.23;1662022;85;21210;-84
2021/04/14 10:30:37;;;;;;;9.98;8.35;;;;;;;15.12;41.41;100176.05;1655358;84;21242;-85
2021/04/14 10:33:21;;;;;;;11.80;9.13;;;;;;;15.24;41.54;100173.47;1656532;84;21329;-84
2021/04/14 10:35:51;;;;;;;11.28;9.35;;;;;;;15.37;41.09;100172.51;1596989;88;21809;-85
2021/04/14 10:38:31;;;;;;;10.82;9.73;;;;;;;15.41;40.84;100166.98;1595557;88;22494;-85
2021/04/14 10:40:59;;;;;;;10.28;8.75;;;;;;;15.47;41.11;100171.98;1600307;87;21306;-85
2021/04/14 10:43:29;;;;;;;11.12;9.25;;;;;;;15.58;40.97;100164.51;1616789;85;21219;-85
2021/04/14 10:46:29;;;;;;;9.38;7.30;;;;;;;15.69;40.43;100164.25;1649651;85;21168;-87
2021/04/14 10:49:10;;;;;;;9.85;8.33;;;;;;;15.79;40.48;100162.42;1664053;85;21857;-88
2021/04/14 10:51:50;;;;;;;11.22;10.13;;;;;;;15.90;39.95;100166.50;1655652;85;21204;-87
2021/04/14 10:54:23;;;;;;;9.33;8.28;;;;;;;15.88;39.50;100166.41;1668706;84;21336;-85
2021/04/14 10:57:07;;;;;;;8.75;7.28;;;;;;;15.89;40.00;100159.47;1666611;84;21167;-86
2021/04/14 10:59:35;;;;;;;8.08;6.85;;;;;;;16.01;40.16;100157.34;1661546;84;21154;-85
2021/04/14 11:02:15;;;;;;;13.03;7.95;;;;;;;16.18;39.73;100143.57;1646060;86;21579;-85
2021/04/14 11:05:14;;;;;;;8.23;7.03;;;;;;;16.34;39.12;100143.42;1809018;78;23070;-84
2021/04/14 11:09:56;;;;;;;9.05;7.92;;;;;;;16.46;38.43;100137.55;1791265;79;22918;-85
2021/04/14 11:12:27;;;;;;;9.60;7.03;;;;;;;16.43;38.37;100140.69;1730474;81;21084;-92
2021/04/14 11:15:10;;;;;;;8.50;7.47;;;;;;;16.48;38.51;100134.09;1751021;81;21164;-84
2021/04/14 11:17:39;;;;;;;6.58;5.87;;;;;;;16.58;38.17;100131.36;1743422;81;21298;-84
2021/04/14 11:20:14;;;;;;;5.80;5.20;;;;;;;16.70;37.80;100124.91;1750960;81;21692;-84
2021/04/14 11:22:56;;;;;;;11.08;6.58;;;;;;;16.82;36.65;100125.43;1734947;81;22114;-84
2021/04/14 11:25:30;;;;;;;7.03;5.80;;;;;;;16.86;37.04;100130.69;1738960;81;21184;-85
2021/04/14 11:28:06;;;;;;;7.25;5.53;;;;;;;16.94;37.08;100119.55;1724460;81;21676;-85
2021/04/14 11:30:50;;;;;;;10.00;6.47;;;;;;;17.06;36.59;100129.77;1749241;81;21152;-86
2021/04/14 11:33:21;;;;;;;7.45;6.55;;;;;;;17.12;35.58;100126.66;1715013;82;21169;-84
2021/04/14 11:35:52;;;;;;;5.60;5.20;;;;;;;17.00;35.41;100112.41;1648372;86;21147;-85
2021/04/14 11:38:34;;;;;;;5.15;4.67;;;;;;;16.93;35.42;100116.05;1700118;83;21346;-87
2021/04/14 11:41:18;;;;;;;12.13;4.92;;;;;;;16.83;35.35;100122.54;1673548;84;21198;-87
2021/04/14 11:43:47;;;;;;;5.08;4.58;;;;;;;16.83;35.35;100122.54;1672074;84;21187;-84
2021/04/14 11:46:38;;;;;;;5.72;4.80;;;;;;;16.76;35.57;100113.73;1692311;83;21203;-86
2021/04/14 11:49:14;;;;;;;6.22;5.70;;;;;;;16.73;36.22;100107.48;1698562;83;21156;-88
2021/04/14 11:51:45;;;;;;;5.92;5.17;;;;;;;16.66;35.65;100110.28;1684027;85;21179;-89
2021/04/14 11:54:30;;;;;;;6.28;5.67;;;;;;;16.61;35.68;100095.89;1684947;83;21143;-94
2021/04/14 11:57:26;;;;;;;9.43;5.67;;;;;;;16.60;36.11;100103.69;1650496;85;21237;-95
2021/04/14 12:00:29;;;;;;;5.17;4.80;;;;;;;16.59;35.54;100104.73;1668261;85;21298;-93
2021/04/14 12:03:41;;;;;;;6.60;5.20;;;;;;;16.52;35.68;100103.52;1826747;76;22669;-95
2021/04/14 12:06:26;;;;;;;;;;;;;;;;;;;;;
2021/04/14 12:19:34;;;;;;;5.45;4.03;;;;;;;16.28;35.94;100090.03;1721676;80;23007;-92
2021/04/14 12:22:09;;;;;;;7.12;4.47;;;;;;;16.25;36.18;100092.36;1733194;80;21291;-94
2021/04/14 12:25:11;;;;;;;5.22;4.53;;;;;;;16.34;35.91;100107.11;1716762;81;21195;-91
2021/04/14 12:27:39;;;;;;;7.12;5.80;;;;;;;16.38;35.52;100089.98;1707677;81;21221;-86
2021/04/14 12:30:08;;;;;;;5.28;4.50;;;;;;;16.37;35.56;100082.95;1674231;85;21390;-86
2021/04/14 12:32:41;;;;;;;7.87;5.08;;;;;;;16.32;35.48;100085.00;1682507;85;21191;-86
2021/04/14 12:35:14;;;;;;;8.98;5.10;;;;;;;16.30;35.72;100075.82;1676993;83;21127;-88